Weather at Bahías de Huatulco International Airport

Public forecast

Using degrees Celsius for public forecast. Weather courtesy of forecast.io.

Current aviation weather report (METAR) for Bahías de Huatulco International Airport

Retrieved 2021/09/28 12:01 UTC (1 hour ago):

MMBT 281201Z RTD 25006KT 5SM OVC015 24/20 A2994 RMK 8/7// HZY RTS

Aviation forecast (TAF) for Bahías de Huatulco International Airport

Forecast is more than 12 hours old.

Retrieved 2021/09/26 18:55 UTC (2 days ago):

TAF MMBT 261647Z 2618/2718 23012KT P6SM SCT030 BKN200 TEMPO 2621/2701 5SM VC RA SCT020CB BKN100 FM270300 00000KT P6SM BKN200